Time;durP1;ratioP1;P1;durP2;ratioP2;P2;SDS_P1;SDS_P2;PMS_P1;PMS_P2;Temp;Humidity;BMP_temperature;BMP_pressure;BME280_temperature;BME280_humidity;BME280_pressure;Samples;Min_cycle;Max_cycle;Signal;HPM_P1;HPM_P2
2021/11/11 00:00:23;;;;;;;5.80;1.88;;;20.70;79.00;;;;;;5052679;28;20573;-69
2021/11/11 00:02:49;;;;;;;2.90;1.15;;;20.70;79.20;;;;;;5053468;28;20063;-65
2021/11/11 00:05:16;;;;;;;4.00;1.15;;;20.70;79.30;;;;;;5053834;28;20066;-65
2021/11/11 00:07:42;;;;;;;4.63;1.77;;;20.60;79.30;;;;;;5052957;28;20028;-65
2021/11/11 00:10:12;;;;;;;2.90;1.08;;;20.60;79.50;;;;;;5052602;28;20028;-65
2021/11/11 00:12:39;;;;;;;3.40;1.58;;;20.60;79.50;;;;;;5054451;28;20025;-65
2021/11/11 00:15:08;;;;;;;2.90;1.10;;;20.60;79.30;;;;;;5056560;28;20052;-74
2021/11/11 00:17:34;;;;;;;3.85;1.52;;;20.60;79.70;;;;;;5052587;28;20415;-65
2021/11/11 00:20:01;;;;;;;5.68;1.63;;;20.60;79.70;;;;;;5054651;28;20013;-65
2021/11/11 00:22:28;;;;;;;2.60;1.42;;;20.60;79.70;;;;;;5051943;28;20087;-68
2021/11/11 00:24:54;;;;;;;8.48;1.63;;;20.60;79.70;;;;;;5053515;28;20056;-65
2021/11/11 00:27:21;;;;;;;4.10;2.30;;;20.60;79.70;;;;;;5052911;28;20028;-65
2021/11/11 00:29:48;;;;;;;5.28;1.75;;;20.50;79.80;;;;;;5058405;28;20033;-73
2021/11/11 00:32:14;;;;;;;6.63;1.70;;;20.50;80.00;;;;;;5051833;28;20398;-68
2021/11/11 00:34:43;;;;;;;6.07;2.00;;;20.50;79.90;;;;;;5053834;28;20389;-72
2021/11/11 00:37:09;;;;;;;5.30;1.40;;;20.50;79.90;;;;;;5050634;28;20029;-65
2021/11/11 00:39:36;;;;;;;2.25;1.50;;;20.50;79.90;;;;;;5055009;28;20112;-65
2021/11/11 00:42:03;;;;;;;7.63;1.90;;;20.50;79.90;;;;;;5053722;28;20459;-73
2021/11/11 00:44:29;;;;;;;9.75;2.78;;;20.50;79.90;;;;;;5051300;28;20029;-65
2021/11/11 00:46:56;;;;;;;4.07;1.50;;;20.50;79.90;;;;;;5052098;28;20048;-70
2021/11/11 00:49:22;;;;;;;3.22;1.58;;;20.50;79.90;;;;;;5053770;28;20021;-71
2021/11/11 00:51:49;;;;;;;10.00;1.92;;;20.50;79.90;;;;;;5043134;28;20396;-72
2021/11/11 00:54:15;;;;;;;6.93;2.20;;;20.50;79.90;;;;;;5048324;28;20070;-68
2021/11/11 00:56:42;;;;;;;6.15;1.40;;;20.40;80.00;;;;;;5051061;28;20021;-66
2021/11/11 00:59:10;;;;;;;4.25;1.20;;;20.40;80.00;;;;;;5048639;28;20498;-72
2021/11/11 01:01:37;;;;;;;4.05;1.70;;;20.40;80.20;;;;;;5049576;28;20033;-70
2021/11/11 01:04:04;;;;;;;3.30;1.30;;;20.40;80.30;;;;;;5050977;28;20025;-71
2021/11/11 01:06:31;;;;;;;5.57;2.05;;;20.30;80.40;;;;;;5049553;28;20533;-65
2021/11/11 01:08:58;;;;;;;6.95;2.95;;;20.30;80.60;;;;;;5051272;28;20024;-65
2021/11/11 01:11:26;;;;;;;6.10;1.98;;;20.40;80.40;;;;;;5052950;28;20578;-66
2021/11/11 01:13:53;;;;;;;10.88;1.77;;;20.40;80.50;;;;;;5053000;28;20075;-65
2021/11/11 01:16:19;;;;;;;5.30;1.40;;;20.40;80.60;;;;;;5053049;28;20099;-66
2021/11/11 01:18:46;;;;;;;4.18;1.77;;;20.30;80.60;;;;;;5052838;28;20088;-65
2021/11/11 01:21:13;;;;;;;8.63;2.15;;;20.30;80.70;;;;;;5052326;28;20032;-65
2021/11/11 01:23:40;;;;;;;11.85;1.85;;;20.30;80.70;;;;;;5051386;28;20488;-65
2021/11/11 01:26:07;;;;;;;6.35;2.60;;;20.30;81.00;;;;;;5050869;28;20023;-65
2021/11/11 01:28:35;;;;;;;5.35;1.30;;;20.30;80.90;;;;;;5055273;28;20052;-65
2021/11/11 01:31:02;;;;;;;9.05;1.55;;;20.30;81.00;;;;;;5051140;28;20025;-66
2021/11/11 01:33:29;;;;;;;4.47;1.50;;;20.30;81.20;;;;;;5052094;28;20037;-74
2021/11/11 01:35:55;;;;;;;6.20;1.27;;;20.30;81.20;;;;;;5051076;28;20040;-65
2021/11/11 01:38:23;;;;;;;5.05;1.67;;;20.20;81.20;;;;;;5049644;28;20101;-65
2021/11/11 01:40:51;;;;;;;7.70;1.38;;;20.30;81.50;;;;;;5053475;28;20023;-65
2021/11/11 01:43:18;;;;;;;6.40;1.35;;;20.20;81.30;;;;;;5054033;28;20060;-66
2021/11/11 01:45:45;;;;;;;5.38;1.48;;;20.20;81.40;;;;;;5049653;28;20419;-65
2021/11/11 01:48:15;;;;;;;6.15;2.00;;;20.20;81.50;;;;;;5053468;28;20055;-65
2021/11/11 01:50:43;;;;;;;5.22;1.30;;;20.20;81.50;;;;;;5046514;28;20491;-66
2021/11/11 01:53:11;;;;;;;3.33;1.48;;;20.20;81.50;;;;;;5051520;28;20397;-66
2021/11/11 01:55:40;;;;;;;11.23;1.88;;;20.20;81.60;;;;;;5051482;28;20032;-66
2021/11/11 01:58:06;;;;;;;4.25;1.92;;;20.20;81.60;;;;;;5051936;28;20055;-65
2021/11/11 02:00:44;;;;;;;3.70;1.08;;;20.20;81.70;;;;;;5050661;28;20020;-67
2021/11/11 02:03:11;;;;;;;4.63;1.67;;;20.20;81.60;;;;;;5051819;28;20072;-66
2021/11/11 02:05:38;;;;;;;7.72;1.90;;;20.20;81.70;;;;;;5050208;28;20025;-70
2021/11/11 02:08:05;;;;;;;7.55;1.70;;;20.20;81.70;;;;;;5052183;28;20043;-65
2021/11/11 02:10:33;;;;;;;6.45;1.48;;;20.20;81.70;;;;;;5053455;28;20025;-70
2021/11/11 02:13:00;;;;;;;7.43;2.13;;;20.20;81.80;;;;;;5049816;28;20025;-66
2021/11/11 02:15:27;;;;;;;7.55;1.90;;;20.20;81.70;;;;;;5054033;28;20025;-65
2021/11/11 02:17:54;;;;;;;7.93;2.28;;;20.20;81.80;;;;;;5050382;28;20047;-67
2021/11/11 02:20:24;;;;;;;6.45;1.85;;;20.20;81.70;;;;;;5053331;28;20479;-65
2021/11/11 02:22:52;;;;;;;8.70;2.20;;;20.20;81.70;;;;;;5051530;28;20128;-65
2021/11/11 02:25:20;;;;;;;4.90;1.60;;;20.20;81.80;;;;;;5050524;28;20046;-65
2021/11/11 02:27:49;;;;;;;10.15;2.55;;;20.20;81.80;;;;;;5050760;28;20021;-65
2021/11/11 02:30:18;;;;;;;3.90;1.20;;;20.20;82.00;;;;;;5053137;28;20053;-69
2021/11/11 02:32:48;;;;;;;8.95;2.30;;;20.20;81.80;;;;;;5051128;28;20041;-65
2021/11/11 02:35:17;;;;;;;6.47;1.85;;;20.20;82.00;;;;;;5052065;28;20357;-73
2021/11/11 02:37:44;;;;;;;5.38;2.22;;;20.20;82.00;;;;;;5050399;28;20024;-65
2021/11/11 02:40:16;;;;;;;4.18;1.70;;;20.10;82.00;;;;;;5052168;28;20100;-65
2021/11/11 02:42:44;;;;;;;4.97;1.38;;;20.10;82.20;;;;;;5053157;28;20044;-65
2021/11/11 02:45:15;;;;;;;7.18;1.70;;;20.10;82.10;;;;;;5050841;28;20025;-70
2021/11/11 02:47:42;;;;;;;4.82;1.45;;;20.10;82.30;;;;;;5056622;28;20036;-72
2021/11/11 02:50:09;;;;;;;6.53;2.13;;;20.10;82.00;;;;;;5052578;28;20024;-72
2021/11/11 02:52:36;;;;;;;4.50;1.42;;;20.10;82.20;;;;;;5051054;28;20344;-73
2021/11/11 02:55:05;;;;;;;4.55;1.60;;;20.10;82.20;;;;;;5050242;28;20481;-66
2021/11/11 02:57:34;;;;;;;6.40;2.38;;;20.00;82.20;;;;;;5052178;28;20590;-70
2021/11/11 03:00:11;;;;;;;5.03;1.35;;;20.00;82.30;;;;;;5050371;28;20013;-66
2021/11/11 03:02:40;;;;;;;4.82;1.35;;;20.00;82.10;;;;;;5053167;28;20116;-66
2021/11/11 03:05:10;;;;;;;6.95;1.35;;;20.00;82.10;;;;;;5053414;28;20033;-66
2021/11/11 03:07:37;;;;;;;6.10;1.27;;;20.00;82.20;;;;;;5051963;28;20451;-65
2021/11/11 03:10:06;;;;;;;4.55;1.50;;;20.00;82.20;;;;;;5053551;28;20028;-65
2021/11/11 03:12:33;;;;;;;6.50;2.40;;;20.00;82.20;;;;;;5056282;28;20036;-66
2021/11/11 03:15:00;;;;;;;5.45;1.58;;;20.00;82.00;;;;;;5055793;28;20021;-66
2021/11/11 03:17:27;;;;;;;7.00;1.42;;;20.00;81.90;;;;;;5054875;28;20024;-67
2021/11/11 03:19:53;;;;;;;6.45;1.40;;;20.00;81.90;;;;;;5055167;28;20541;-72
2021/11/11 03:22:20;;;;;;;9.50;1.73;;;20.00;82.10;;;;;;5051897;28;20392;-71
2021/11/11 03:24:49;;;;;;;8.38;2.03;;;20.00;82.10;;;;;;5055448;28;20029;-66
2021/11/11 03:27:16;;;;;;;8.30;2.65;;;20.00;82.00;;;;;;5054035;28;20029;-66
2021/11/11 03:29:45;;;;;;;6.15;1.27;;;20.00;82.10;;;;;;5052694;28;20471;-70
2021/11/11 03:32:11;;;;;;;6.40;1.85;;;20.00;82.10;;;;;;5050071;28;20031;-68
2021/11/11 03:34:38;;;;;;;4.60;2.05;;;19.90;82.10;;;;;;5053944;28;20376;-65
2021/11/11 03:37:05;;;;;;;7.93;2.53;;;19.90;82.10;;;;;;5053107;28;20036;-65
2021/11/11 03:39:32;;;;;;;6.72;2.10;;;19.90;82.10;;;;;;5051425;28;20021;-71
2021/11/11 03:41:59;;;;;;;7.18;2.00;;;19.90;82.10;;;;;;5054209;28;20037;-71
2021/11/11 03:44:26;;;;;;;9.75;1.83;;;20.00;82.10;;;;;;5055734;28;20017;-66
2021/11/11 03:46:57;;;;;;;3.83;1.35;;;19.90;82.10;;;;;;5054343;28;20472;-67
2021/11/11 03:49:24;;;;;;;34.85;11.18;;;19.90;82.00;;;;;;5054813;28;20017;-65
2021/11/11 03:51:51;;;;;;;18.50;8.73;;;19.90;82.00;;;;;;5054149;28;20060;-66
2021/11/11 03:54:20;;;;;;;9.15;3.15;;;19.90;82.00;;;;;;5053610;28;20025;-82
2021/11/11 03:56:48;;;;;;;23.38;16.48;;;20.00;82.00;;;;;;5047460;28;20021;-71
2021/11/11 03:59:15;;;;;;;11.55;8.55;;;20.00;82.00;;;;;;5050582;28;20073;-70
2021/11/11 04:01:43;;;;;;;32.08;22.85;;;19.90;81.70;;;;;;5049459;28;20021;-65
2021/11/11 04:04:10;;;;;;;6.40;3.47;;;20.00;81.80;;;;;;5046883;28;20099;-71
2021/11/11 06:58:34;;;;;;;1.17;0.60;;;21.90;67.00;;;;;;6183627;22;3056953;-68
2021/11/11 07:01:02;;;;;;;2.35;0.98;;;22.00;67.50;;;;;;6281355;22;20339;-68
2021/11/11 07:03:29;;;;;;;4.63;1.25;;;22.10;67.90;;;;;;6280820;22;20079;-68
2021/11/11 07:05:56;;;;;;;5.93;1.13;;;22.10;69.10;;;;;;6281598;22;20039;-68
2021/11/11 07:08:23;;;;;;;1.83;1.05;;;22.10;68.50;;;;;;6280482;22;20004;-68
2021/11/11 07:10:52;;;;;;;4.78;1.65;;;22.20;68.50;;;;;;6281776;22;20000;-68
2021/11/11 07:13:20;;;;;;;2.78;1.05;;;22.20;68.10;;;;;;6280629;22;20030;-68
2021/11/11 07:15:48;;;;;;;1.35;0.80;;;22.20;68.20;;;;;;6281697;22;19995;-68
2021/11/11 07:18:15;;;;;;;2.50;1.00;;;22.40;67.10;;;;;;6281176;22;20002;-68
2021/11/11 07:20:49;;;;;;;17.88;2.22;;;22.40;66.60;;;;;;6280938;22;20004;-68
2021/11/11 07:23:17;;;;;;;9.00;1.50;;;22.40;65.90;;;;;;6281749;22;20691;-69
2021/11/11 07:25:44;;;;;;;3.35;1.15;;;22.50;65.60;;;;;;6279948;22;20026;-69
2021/11/11 07:28:11;;;;;;;1.02;0.77;;;22.60;64.80;;;;;;6274435;22;20304;-68
2021/11/11 07:30:38;;;;;;;3.10;1.10;;;22.70;64.10;;;;;;6273740;22;20031;-68
2021/11/11 07:33:44;;;;;;;3.50;0.70;;;22.70;63.80;;;;;;6274304;22;20062;-68
2021/11/11 07:36:52;;;;;;;3.08;1.20;;;22.80;63.80;;;;;;6274597;22;20003;-69
2021/11/11 07:39:19;;;;;;;5.78;1.00;;;22.90;64.50;;;;;;6273192;22;20035;-68
2021/11/11 07:41:46;;;;;;;3.63;1.33;;;22.90;63.60;;;;;;6274416;22;20004;-69
2021/11/11 07:44:13;;;;;;;2.08;1.38;;;23.00;63.20;;;;;;6274159;22;19995;-68
2021/11/11 07:46:42;;;;;;;3.70;1.05;;;23.10;63.30;;;;;;6273594;22;20082;-68
2021/11/11 07:49:09;;;;;;;2.15;1.13;;;23.10;63.20;;;;;;6274464;22;20049;-68
2021/11/11 07:51:36;;;;;;;2.20;0.90;;;23.20;62.90;;;;;;6273126;22;19992;-68
2021/11/11 07:54:03;;;;;;;4.22;0.90;;;23.20;62.50;;;;;;6274343;22;20430;-68
2021/11/11 07:56:30;;;;;;;6.07;1.00;;;23.30;62.30;;;;;;6273480;22;20007;-68
2021/11/11 07:58:57;;;;;;;2.22;0.82;;;23.40;61.90;;;;;;6274154;22;20022;-69
2021/11/11 08:01:24;;;;;;;2.60;0.77;;;23.40;61.30;;;;;;6273713;22;20066;-68
2021/11/11 08:03:50;;;;;;;12.70;1.38;;;23.50;61.10;;;;;;6273888;22;20331;-69
2021/11/11 08:06:17;;;;;;;2.78;0.90;;;23.60;60.80;;;;;;6274598;22;20016;-69
2021/11/11 08:08:43;;;;;;;6.30;1.00;;;23.70;60.50;;;;;;6273024;22;20084;-69
2021/11/11 08:11:10;;;;;;;3.90;1.20;;;23.70;60.70;;;;;;6246948;22;20718;-69
2021/11/11 08:13:37;;;;;;;4.70;1.13;;;23.80;60.40;;;;;;6272964;22;20015;-68
2021/11/11 08:16:03;;;;;;;3.85;1.05;;;23.80;60.10;;;;;;6274515;22;20000;-68
2021/11/11 08:18:30;;;;;;;7.82;1.33;;;23.90;60.10;;;;;;6273661;22;20024;-69
2021/11/11 08:20:56;;;;;;;2.42;0.73;;;24.00;60.10;;;;;;6273823;22;20054;-68
2021/11/11 08:23:23;;;;;;;2.70;0.70;;;24.10;59.50;;;;;;6273891;22;20015;-69
2021/11/11 08:25:51;;;;;;;5.53;0.90;;;24.10;59.10;;;;;;6273048;22;20015;-69
2021/11/11 08:28:22;;;;;;;1.30;0.85;;;24.20;58.90;;;;;;6274286;22;20378;-69
2021/11/11 08:30:49;;;;;;;1.85;1.10;;;24.20;58.80;;;;;;6272826;22;20053;-69
2021/11/11 08:33:16;;;;;;;2.28;0.80;;;24.30;58.70;;;;;;6274001;22;20004;-69
2021/11/11 08:35:43;;;;;;;4.65;1.23;;;24.40;58.50;;;;;;6272946;22;20031;-69
2021/11/11 08:38:13;;;;;;;4.90;0.80;;;24.40;58.10;;;;;;6273211;22;20000;-68
2021/11/11 08:40:40;;;;;;;5.22;1.00;;;24.50;58.00;;;;;;6273992;22;20008;-69
2021/11/11 08:43:07;;;;;;;2.15;0.98;;;24.60;57.80;;;;;;6272962;22;20725;-68
2021/11/11 08:45:34;;;;;;;5.82;1.65;;;24.60;57.70;;;;;;6273664;22;20008;-70
2021/11/11 08:48:02;;;;;;;2.83;0.80;;;24.70;57.70;;;;;;6271820;22;20004;-69
2021/11/11 08:50:31;;;;;;;3.17;1.00;;;24.80;57.60;;;;;;6274135;22;20003;-69
2021/11/11 08:53:01;;;;;;;5.68;0.95;;;24.90;57.10;;;;;;6272594;22;19995;-69
2021/11/11 08:55:33;;;;;;;3.65;1.20;;;24.90;56.80;;;;;;6273645;22;20004;-69
2021/11/11 08:58:01;;;;;;;2.72;0.77;;;25.00;56.70;;;;;;6273346;22;20018;-69
2021/11/11 09:00:31;;;;;;;3.13;1.25;;;25.00;56.60;;;;;;6272759;22;20330;-69
2021/11/11 09:03:00;;;;;;;2.78;0.95;;;25.00;57.00;;;;;;6273864;22;20699;-69
2021/11/11 09:05:31;;;;;;;7.15;1.23;;;25.10;57.10;;;;;;6272532;22;20406;-69
2021/11/11 09:08:00;;;;;;;2.20;1.67;;;25.20;57.20;;;;;;6273573;22;20006;-69
2021/11/11 09:10:26;;;;;;;2.92;1.15;;;25.20;56.70;;;;;;6272673;22;20388;-69
2021/11/11 09:12:54;;;;;;;2.13;1.10;;;25.30;56.90;;;;;;6273359;22;20387;-69
2021/11/11 09:15:23;;;;;;;1.88;0.75;;;25.30;56.60;;;;;;6273414;22;19996;-69
2021/11/11 09:17:52;;;;;;;3.90;1.15;;;25.40;56.10;;;;;;6272412;22;20019;-69
2021/11/11 09:20:19;;;;;;;3.00;0.88;;;25.50;56.50;;;;;;6273795;22;20021;-69
2021/11/11 09:22:47;;;;;;;4.43;1.98;;;25.50;55.50;;;;;;6272336;22;20000;-69
2021/11/11 09:25:14;;;;;;;3.03;0.80;;;25.60;56.00;;;;;;6273664;22;20069;-69
2021/11/11 09:27:42;;;;;;;4.43;1.10;;;25.70;55.70;;;;;;6272415;22;20070;-69
2021/11/11 09:30:17;;;;;;;5.50;1.20;;;25.70;55.90;;;;;;6273185;22;20374;-69
2021/11/11 09:32:45;;;;;;;2.45;1.30;;;25.80;56.00;;;;;;6273489;22;20370;-69
2021/11/11 09:35:11;;;;;;;3.72;1.73;;;25.80;55.70;;;;;;6272190;22;20010;-69
2021/11/11 09:37:39;;;;;;;2.28;0.80;;;25.90;55.60;;;;;;6273448;22;20384;-68
2021/11/11 09:40:09;;;;;;;3.80;1.10;;;25.90;55.20;;;;;;6272014;22;20040;-69
2021/11/11 09:42:36;;;;;;;5.00;0.90;;;26.00;55.20;;;;;;6273677;22;20062;-69
2021/11/11 09:45:05;;;;;;;4.80;0.73;;;26.10;55.50;;;;;;6272318;22;20039;-69
2021/11/11 09:47:32;;;;;;;3.15;0.90;;;26.10;55.40;;;;;;6272916;22;20045;-69
2021/11/11 09:50:00;;;;;;;3.60;1.40;;;26.20;55.60;;;;;;6273055;22;19996;-69
2021/11/11 09:52:26;;;;;;;6.18;1.00;;;26.20;55.20;;;;;;6272505;22;20008;-69
2021/11/11 10:00:24;;;;;;;6.15;1.65;;;26.30;54.70;;;;;;6273055;22;20014;-69
2021/11/11 10:02:55;;;;;;;3.42;1.67;;;26.40;54.70;;;;;;6272995;22;19999;-69
2021/11/11 10:05:23;;;;;;;5.38;1.88;;;26.40;55.00;;;;;;6272062;22;20012;-70
2021/11/11 10:07:50;;;;;;;4.60;1.65;;;26.50;54.90;;;;;;6273558;22;20000;-69
2021/11/11 10:10:37;;;;;;;6.82;1.90;;;26.50;54.60;;;;;;6272007;22;20322;-69
2021/11/11 10:13:21;;;;;;;3.50;1.48;;;26.50;54.70;;;;;;6273102;22;20000;-69
2021/11/11 10:16:12;;;;;;;3.80;1.75;;;26.60;54.70;;;;;;6272945;22;20008;-69
2021/11/11 10:18:52;;;;;;;3.45;1.40;;;26.60;54.70;;;;;;6272174;22;20046;-69
2021/11/11 10:21:36;;;;;;;5.00;1.27;;;26.70;54.60;;;;;;6273084;22;20011;-69
2021/11/11 10:24:35;;;;;;;6.40;1.83;;;26.80;54.20;;;;;;6272479;22;20016;-69
2021/11/11 10:27:11;;;;;;;7.63;1.73;;;26.80;53.60;;;;;;6272154;22;20492;-69
2021/11/11 10:29:43;;;;;;;5.00;1.40;;;26.90;53.90;;;;;;6273291;22;19999;-69
2021/11/11 10:32:15;;;;;;;6.43;1.90;;;26.90;54.00;;;;;;6271714;22;20000;-69
2021/11/11 10:35:10;;;;;;;4.70;1.58;;;27.00;54.10;;;;;;6273523;22;20003;-69
2021/11/11 10:37:50;;;;;;;5.38;1.48;;;27.10;54.10;;;;;;6272042;22;20011;-69
2021/11/11 10:40:22;;;;;;;4.38;0.90;;;27.10;54.00;;;;;;6272333;22;20324;-69
2021/11/11 10:42:51;;;;;;;3.47;1.67;;;27.20;54.10;;;;;;6273122;22;20008;-70
2021/11/11 10:45:24;;;;;;;6.35;1.38;;;27.20;53.60;;;;;;6271634;22;20382;-69
2021/11/11 10:47:53;;;;;;;4.40;1.30;;;27.30;54.00;;;;;;6273102;22;20035;-69
2021/11/11 10:50:26;;;;;;;7.55;1.60;;;27.30;54.20;;;;;;6272706;22;20000;-70
2021/11/11 10:52:58;;;;;;;3.33;1.95;;;27.30;53.80;;;;;;6272026;22;19995;-69
2021/11/11 10:55:27;;;;;;;8.95;1.90;;;27.40;53.80;;;;;;6273291;22;20078;-69
2021/11/11 10:58:02;;;;;;;4.53;1.63;;;27.40;53.30;;;;;;6271639;22;20434;-70
2021/11/11 11:00:39;;;;;;;;;;;27.50;53.30;;;;;;6273623;22;20449;-69
2021/11/11 11:03:17;;;;;;;9.30;2.42;;;27.50;54.00;;;;;;6273646;22;20219;-69
2021/11/11 11:06:08;;;;;;;2.72;1.63;;;27.50;54.00;;;;;;6274046;22;20443;-69
2021/11/11 11:09:05;;;;;;;4.30;1.63;;;27.50;54.30;;;;;;6247814;22;20004;-69
2021/11/11 11:11:38;;;;;;;6.00;1.50;;;27.60;54.20;;;;;;6241333;22;20003;-69
2021/11/11 11:14:22;;;;;;;6.72;1.95;;;27.60;53.90;;;;;;6274443;22;20003;-69
2021/11/11 11:16:49;;;;;;;7.88;2.22;;;27.70;54.30;;;;;;6274956;22;20003;-69
2021/11/11 11:19:19;;;;;;;6.82;1.40;;;27.70;53.30;;;;;;6273688;22;20423;-69
2021/11/11 11:21:52;;;;;;;7.82;2.38;;;27.70;53.80;;;;;;6274782;22;20007;-70
2021/11/11 11:24:28;;;;;;;5.25;2.25;;;27.80;54.10;;;;;;6273573;22;20451;-69
2021/11/11 11:26:57;;;;;;;2.60;1.38;;;27.80;53.60;;;;;;6247209;22;20335;-70
2021/11/11 11:29:37;;;;;;;9.15;1.83;;;27.80;53.70;;;;;;6275002;22;20003;-69
2021/11/11 11:32:21;;;;;;;6.00;1.50;;;27.90;53.80;;;;;;6273352;22;20438;-69
2021/11/11 11:34:52;;;;;;;8.50;1.80;;;27.90;53.90;;;;;;6274520;22;20462;-69
2021/11/11 11:37:25;;;;;;;8.48;1.58;;;27.90;53.80;;;;;;6273241;22;20233;-69
2021/11/11 11:40:02;;;;;;;4.35;2.58;;;27.90;53.10;;;;;;6274542;22;20002;-69
2021/11/11 11:42:33;;;;;;;9.48;2.40;;;28.00;53.30;;;;;;6274500;22;20079;-69
2021/11/11 11:45:11;;;;;;;6.50;2.47;;;28.00;53.40;;;;;;6273156;22;20015;-69
2021/11/11 11:50:34;;;;;;;5.00;2.15;;;28.10;53.10;;;;;;6273806;22;20003;-69
2021/11/11 11:53:06;;;;;;;5.65;1.67;;;28.20;53.10;;;;;;6274403;22;20011;-69
2021/11/11 11:58:17;;;;;;;2.30;0.93;;;28.30;53.10;;;;;;6273186;22;20020;-69
2021/11/11 12:03:40;;;;;;;3.88;1.90;;;28.40;52.70;;;;;;6273263;22;20035;-69
2021/11/11 12:17:36;;;;;;;8.43;1.85;;;28.40;53.60;;;;;;6273979;22;20006;-69
2021/11/11 12:29:00;;;;;;;6.47;1.33;;;28.40;54.10;;;;;;6272753;22;20092;-69
2021/11/11 12:39:50;;;;;;;8.82;1.80;;;28.40;53.80;;;;;;6273951;22;20050;-69
2021/11/11 12:42:29;;;;;;;8.68;2.22;;;28.20;54.60;;;;;;6272602;22;20050;-69
2021/11/11 12:45:12;;;;;;;5.65;1.90;;;28.00;54.40;;;;;;6273691;22;20003;-69
2021/11/11 12:48:01;;;;;;;13.23;1.70;;;27.80;54.90;;;;;;6274292;22;20004;-69
2021/11/11 12:50:36;;;;;;;6.90;1.85;;;27.60;55.30;;;;;;6272514;22;20022;-69
2021/11/11 12:53:12;;;;;;;9.85;2.15;;;27.50;55.80;;;;;;6273925;22;20000;-69
2021/11/11 12:55:41;;;;;;;9.43;2.10;;;27.50;55.70;;;;;;6272913;22;20057;-69
2021/11/11 12:58:12;;;;;;;5.63;1.73;;;27.60;55.90;;;;;;6273374;22;20039;-69
2021/11/11 13:00:40;;;;;;;4.80;1.58;;;27.70;56.20;;;;;;6273956;22;20000;-69
2021/11/11 13:03:09;;;;;;;10.13;2.55;;;27.70;55.60;;;;;;6272279;22;20019;-69
2021/11/11 13:05:54;;;;;;;8.02;1.58;;;27.70;55.80;;;;;;6246410;22;20446;-69
2021/11/11 13:08:24;;;;;;;;;;;27.70;55.70;;;;;;6273165;22;20006;-70
2021/11/11 13:10:58;;;;;;;7.38;2.20;;;27.70;55.80;;;;;;6273433;22;20326;-69
2021/11/11 13:13:27;;;;;;;8.73;2.28;;;27.80;55.90;;;;;;6273681;22;19999;-69
2021/11/11 13:16:16;;;;;;;7.78;2.40;;;27.70;55.80;;;;;;6272460;22;19996;-69
2021/11/11 13:18:51;;;;;;;13.27;2.05;;;27.70;55.90;;;;;;6273979;22;20054;-70
2021/11/11 13:24:48;;;;;;;5.20;1.60;;;27.80;55.40;;;;;;6272761;22;20080;-70
2021/11/11 14:28:02;;;;;;;11.02;2.75;;;26.80;57.10;;;;;;6271733;22;20095;-70
2021/11/11 15:15:14;;;;;;;7.03;2.47;;;26.00;59.30;;;;;;6240472;23;20059;-70
2021/11/11 15:17:32;;;;;;;7.15;2.30;;;26.00;60.40;;;;;;6239347;23;20055;-68
2021/11/11 16:00:25;;;;;;;10.68;3.88;;;25.50;61.00;;;;;;6270437;22;20031;-70
2021/11/11 16:03:12;;;;;;;7.85;3.22;;;25.40;61.00;;;;;;6270219;22;20427;-69
2021/11/11 16:27:27;;;;;;;6.05;2.70;;;25.00;62.70;;;;;;6265994;22;20010;-70
2021/11/11 16:30:02;;;;;;;7.97;2.15;;;24.90;62.90;;;;;;6257448;22;20027;-70
2021/11/11 16:32:28;;;;;;;12.10;3.55;;;24.90;63.30;;;;;;6269484;22;20010;-70
2021/11/11 16:34:55;;;;;;;11.38;3.70;;;24.80;63.20;;;;;;6269063;22;19996;-70
2021/11/11 16:37:21;;;;;;;10.85;5.68;;;24.80;63.70;;;;;;6270127;22;20000;-70
2021/11/11 16:39:48;;;;;;;11.07;6.15;;;24.80;63.40;;;;;;6256573;22;20452;-71
2021/11/11 16:42:15;;;;;;;15.63;5.97;;;24.70;63.70;;;;;;6267507;22;20003;-71
2021/11/11 16:44:41;;;;;;;14.27;6.25;;;24.60;64.20;;;;;;6268695;22;20006;-69
2021/11/11 16:47:10;;;;;;;20.17;10.85;;;24.60;64.40;;;;;;6270806;22;19999;-70
2021/11/11 16:49:37;;;;;;;9.73;5.22;;;24.60;64.90;;;;;;6270243;22;20010;-69
2021/11/11 16:52:04;;;;;;;17.73;4.63;;;24.50;65.00;;;;;;6269551;22;20090;-70
2021/11/11 16:54:31;;;;;;;12.82;5.63;;;24.50;65.30;;;;;;6269488;22;20044;-66
2021/11/11 16:56:57;;;;;;;7.78;3.42;;;24.40;65.40;;;;;;6269439;22;20728;-69
2021/11/11 16:59:24;;;;;;;7.07;2.70;;;24.50;65.50;;;;;;6269827;22;20018;-69
2021/11/11 17:01:51;;;;;;;10.43;3.45;;;24.40;65.30;;;;;;6267213;22;20003;-72
2021/11/11 17:04:18;;;;;;;8.90;3.55;;;24.30;65.80;;;;;;6265962;22;20031;-70
2021/11/11 17:06:45;;;;;;;13.30;4.88;;;24.30;65.50;;;;;;6266892;22;20382;-70
2021/11/11 17:09:12;;;;;;;13.40;4.32;;;24.20;65.50;;;;;;6267792;22;20000;-69
2021/11/11 17:11:39;;;;;;;10.18;4.45;;;24.10;65.70;;;;;;6268545;22;20004;-70
2021/11/11 17:14:05;;;;;;;8.90;3.10;;;24.00;66.10;;;;;;6267157;22;20006;-69
2021/11/11 17:16:32;;;;;;;9.98;4.00;;;24.00;66.60;;;;;;6267914;22;20004;-69
2021/11/11 17:18:59;;;;;;;12.18;5.00;;;23.90;66.90;;;;;;6266604;22;20002;-70
2021/11/11 17:21:26;;;;;;;10.02;4.10;;;23.80;67.20;;;;;;6268364;22;20102;-70
2021/11/11 17:23:55;;;;;;;14.48;5.60;;;23.80;67.60;;;;;;6266452;22;20016;-71
2021/11/11 17:29:31;;;;;;;17.75;9.10;;;23.70;67.80;;;;;;6115309;23;20014;-68
2021/11/11 17:31:59;;;;;;;25.40;16.23;;;23.70;68.10;;;;;;6113231;23;20139;-69
2021/11/11 17:34:26;;;;;;;9.50;5.50;;;23.70;68.20;;;;;;6187885;22;20476;-69
2021/11/11 17:36:54;;;;;;;16.88;7.15;;;23.60;68.30;;;;;;6268150;22;20343;-69
2021/11/11 17:39:21;;;;;;;12.82;4.22;;;23.60;68.60;;;;;;6267385;22;20004;-67
2021/11/11 17:41:49;;;;;;;11.52;3.40;;;23.50;68.80;;;;;;6267980;22;20531;-69
2021/11/11 17:44:17;;;;;;;11.95;4.20;;;23.50;68.90;;;;;;6266839;22;19995;-67
2021/11/11 17:46:46;;;;;;;12.77;3.95;;;23.50;69.10;;;;;;6268227;22;20098;-67
2021/11/11 17:49:15;;;;;;;13.23;5.68;;;23.50;68.90;;;;;;6266605;22;20007;-71
2021/11/11 17:54:28;;;;;;;10.95;2.65;;;23.40;69.20;;;;;;6267613;22;20090;-68
2021/11/11 17:56:56;;;;;;;9.00;3.15;;;23.30;69.30;;;;;;6268485;22;20388;-68
2021/11/11 17:59:25;;;;;;;14.98;4.10;;;23.30;69.60;;;;;;6268248;22;20312;-68
2021/11/11 18:01:53;;;;;;;18.98;3.38;;;23.30;69.90;;;;;;6267576;22;20042;-70
2021/11/11 18:04:20;;;;;;;11.35;2.63;;;23.20;70.00;;;;;;6268578;22;20086;-68
2021/11/11 18:09:21;;;;;;;9.05;2.30;;;23.10;70.30;;;;;;6269365;22;20097;-68
2021/11/11 18:11:51;;;;;;;7.38;2.42;;;23.10;70.50;;;;;;6268078;22;20000;-68
2021/11/11 18:14:21;;;;;;;14.45;3.35;;;23.00;70.80;;;;;;6268819;22;20035;-69
2021/11/11 18:16:51;;;;;;;11.57;2.97;;;23.00;71.90;;;;;;6268935;22;20695;-69
2021/11/11 18:19:18;;;;;;;10.90;3.03;;;22.90;71.30;;;;;;6267738;22;20358;-68
2021/11/11 18:21:47;;;;;;;8.45;3.03;;;22.90;71.50;;;;;;6269088;22;19999;-68
2021/11/11 18:24:13;;;;;;;9.57;2.58;;;22.90;71.60;;;;;;6267623;22;19999;-68
2021/11/11 18:26:41;;;;;;;7.07;2.30;;;22.80;71.70;;;;;;6268890;22;20420;-68
2021/11/11 18:34:19;;;;;;;11.55;3.65;;;22.80;71.80;;;;;;6269423;22;20007;-68
2021/11/11 18:36:47;;;;;;;7.40;2.15;;;22.80;71.80;;;;;;6267484;22;20000;-68
2021/11/11 18:39:19;;;;;;;7.90;2.38;;;22.80;71.90;;;;;;6269904;22;19999;-68
2021/11/11 18:41:48;;;;;;;10.90;3.50;;;22.80;72.00;;;;;;6267852;22;20008;-68
2021/11/11 18:44:18;;;;;;;16.52;4.78;;;22.80;72.00;;;;;;6269344;22;20003;-68
2021/11/11 18:46:46;;;;;;;14.27;3.08;;;22.80;72.10;;;;;;6268742;22;20457;-68
2021/11/11 18:49:14;;;;;;;12.25;3.08;;;22.70;72.20;;;;;;6268107;22;20074;-68
2021/11/11 18:51:44;;;;;;;41.53;25.60;;;22.60;72.50;;;;;;6269523;22;19995;-68
2021/11/11 18:54:11;;;;;;;28.42;17.83;;;22.70;72.70;;;;;;6267842;22;20754;-68
2021/11/11 18:56:39;;;;;;;10.60;5.90;;;22.70;72.80;;;;;;6269393;22;20003;-71
2021/11/11 18:59:07;;;;;;;15.25;3.90;;;22.70;72.80;;;;;;6268045;22;20024;-69
2021/11/11 19:01:35;;;;;;;11.75;3.03;;;22.70;72.80;;;;;;6268609;22;20589;-68
2021/11/11 19:04:05;;;;;;;15.02;3.90;;;22.70;72.90;;;;;;6268840;22;20087;-68
2021/11/11 19:06:43;;;;;;;13.38;2.53;;;22.70;73.00;;;;;;6268083;22;20015;-68
2021/11/11 19:09:23;;;;;;;17.60;4.65;;;22.60;73.10;;;;;;6269803;22;20027;-68
2021/11/11 19:11:55;;;;;;;11.05;3.35;;;22.60;73.00;;;;;;6268436;22;20004;-68
2021/11/11 19:14:28;;;;;;;17.08;3.45;;;22.60;73.30;;;;;;6269714;22;20008;-68
2021/11/11 19:17:00;;;;;;;17.45;5.05;;;22.60;73.50;;;;;;6269076;22;20004;-67
2021/11/11 19:19:32;;;;;;;12.45;2.63;;;22.60;73.90;;;;;;6268666;22;20022;-67
2021/11/11 19:22:00;;;;;;;13.18;4.15;;;22.50;74.00;;;;;;6270108;22;20142;-68
2021/11/11 19:24:27;;;;;;;9.55;3.95;;;22.50;74.10;;;;;;6269945;22;20312;-68
2021/11/11 19:26:54;;;;;;;12.80;3.10;;;22.50;74.10;;;;;;6270089;22;20619;-68
2021/11/11 19:29:23;;;;;;;14.88;3.03;;;22.40;74.30;;;;;;6269608;22;20007;-67
2021/11/11 19:31:55;;;;;;;14.45;6.78;;;22.40;74.40;;;;;;6270398;22;20079;-67
2021/11/11 19:34:36;;;;;;;21.25;8.80;;;22.50;74.50;;;;;;6270610;22;20019;-68
2021/11/11 19:42:19;;;;;;;26.88;5.18;;;22.50;74.70;;;;;;6266772;22;20095;-68